createdAt,value
2023-01-29T00:00:00.035Z,203
2023-01-29T00:00:31.434Z,145
2023-01-29T00:01:03.481Z,115
2023-01-29T00:01:34.116Z,151
2023-01-29T00:02:08.984Z,129
2023-01-29T00:02:41.457Z,117
2023-01-29T00:03:01.737Z,127
2023-01-29T00:03:27.509Z,79
2023-01-29T00:03:58.921Z,70
2023-01-29T00:04:32.684Z,28
2023-01-29T00:05:16.695Z,99
2023-01-29T00:05:34.089Z,108
2023-01-29T00:06:10.469Z,137
2023-01-29T00:06:44.046Z,153
2023-01-29T00:07:05.185Z,125
2023-01-29T00:07:43.186Z,124
2023-01-29T00:08:06.190Z,143
2023-01-29T00:08:28.414Z,177
2023-01-29T00:09:02.885Z,176
2023-01-29T00:09:33.664Z,120
2023-01-29T00:10:07.258Z,134
2023-01-29T00:10:38.808Z,138
2023-01-29T00:11:01.656Z,139
2023-01-29T00:11:23.947Z,158
2023-01-29T00:11:59.136Z,128
2023-01-29T00:12:30.897Z,109
2023-01-29T00:13:02.800Z,125
2023-01-29T00:13:33.588Z,176
2023-01-29T00:14:06.918Z,181
2023-01-29T00:14:38.806Z,158
2023-01-29T00:15:05.087Z,149
2023-01-29T00:15:24.787Z,169
2023-01-29T00:15:58.946Z,164
2023-01-29T00:16:30.977Z,144
2023-01-29T00:17:03.294Z,196
2023-01-29T00:17:33.708Z,146
2023-01-29T00:18:06.936Z,138
2023-01-29T00:18:39.259Z,140
2023-01-29T00:19:01.937Z,132
2023-01-29T00:19:24.349Z,168
2023-01-29T00:19:59.182Z,153
2023-01-29T00:20:30.984Z,141
2023-01-29T00:21:02.926Z,142
2023-01-29T00:21:33.645Z,129
2023-01-29T00:22:06.938Z,91
2023-01-29T00:22:39.013Z,94
2023-01-29T00:23:03.593Z,101
2023-01-29T00:23:26.363Z,127
2023-01-29T00:23:58.893Z,125
2023-01-29T00:24:31.307Z,148
2023-01-29T00:25:02.948Z,125
2023-01-29T00:25:33.606Z,164
2023-01-29T00:26:06.937Z,129
2023-01-29T00:26:33.339Z,149
2023-01-29T00:27:05.419Z,133
2023-01-29T00:27:42.833Z,148
2023-01-29T00:28:05.427Z,147
2023-01-29T00:28:27.798Z,142
2023-01-29T00:29:03.013Z,135
2023-01-29T00:29:33.608Z,114
2023-01-29T00:30:06.967Z,116
2023-01-29T00:30:39.360Z,116
2023-01-29T00:31:02.192Z,116
2023-01-29T00:31:24.632Z,113
2023-01-29T00:32:00.684Z,105
2023-01-29T00:32:31.359Z,103
2023-01-29T00:33:02.980Z,134
2023-01-29T00:33:33.680Z,118
2023-01-29T00:34:06.893Z,95
2023-01-29T00:34:39.348Z,90
2023-01-29T00:35:02.267Z,84
2023-01-29T00:35:24.748Z,81
2023-01-29T00:35:58.817Z,82
2023-01-29T00:36:30.794Z,77
2023-01-29T00:37:02.943Z,77
2023-01-29T00:37:33.601Z,74
2023-01-29T00:38:06.985Z,69
2023-01-29T00:38:38.916Z,66
2023-01-29T00:39:04.600Z,65
2023-01-29T00:39:31.386Z,62
2023-01-29T00:39:59.207Z,66
2023-01-29T00:40:30.853Z,68
2023-01-29T00:41:02.850Z,69
2023-01-29T00:41:33.628Z,68
2023-01-29T00:42:06.946Z,64
2023-01-29T00:42:39.102Z,65
2023-01-29T00:43:02.525Z,75
2023-01-29T00:43:26.678Z,85
2023-01-29T00:43:58.829Z,77
2023-01-29T00:44:30.904Z,74
2023-01-29T00:45:03.262Z,71
2023-01-29T00:45:34.159Z,69
2023-01-29T00:46:06.833Z,69
2023-01-29T00:46:38.928Z,68
2023-01-29T00:47:02.816Z,68
2023-01-29T00:47:25.150Z,72
2023-01-29T00:47:58.899Z,89
2023-01-29T00:48:31.188Z,104
2023-01-29T00:49:04.381Z,116
2023-01-29T00:49:33.979Z,137
2023-01-29T00:50:06.964Z,197
2023-01-29T00:50:38.848Z,90
2023-01-29T00:51:02.307Z,85
2023-01-29T00:51:24.662Z,91
2023-01-29T00:51:59.534Z,87
2023-01-29T00:52:31.263Z,80
2023-01-29T00:53:03.000Z,77
2023-01-29T00:53:33.614Z,75
2023-01-29T00:54:08.360Z,65
2023-01-29T00:54:39.047Z,63
2023-01-29T00:55:01.971Z,63
2023-01-29T00:55:24.169Z,62
2023-01-29T00:55:59.109Z,60
2023-01-29T00:56:30.958Z,52
2023-01-29T00:57:02.947Z,42
2023-01-29T00:57:33.758Z,36
2023-01-29T00:58:07.066Z,34
2023-01-29T00:58:38.899Z,34
2023-01-29T00:59:05.959Z,33
2023-01-29T00:59:24.755Z,33
2023-01-29T00:59:58.780Z,32
2023-01-29T01:00:31.013Z,29
2023-01-29T01:01:03.554Z,25
2023-01-29T01:01:35.115Z,18
2023-01-29T01:02:07.001Z,17
2023-01-29T01:02:38.990Z,17
2023-01-29T01:03:02.255Z,17
2023-01-29T01:03:24.841Z,17
2023-01-29T01:03:58.947Z,17
2023-01-29T01:04:33.076Z,17
2023-01-29T01:05:02.899Z,17
2023-01-29T01:05:33.608Z,17
2023-01-29T01:06:06.813Z,17
2023-01-29T01:06:39.193Z,17
2023-01-29T01:07:06.166Z,17
2023-01-29T01:07:42.974Z,17
2023-01-29T01:08:07.177Z,17
2023-01-29T01:08:28.354Z,17
2023-01-29T01:09:03.187Z,17
2023-01-29T01:09:33.637Z,17
2023-01-29T01:10:06.887Z,17
2023-01-29T01:10:38.912Z,17
2023-01-29T01:11:01.784Z,17
2023-01-29T01:11:25.782Z,17
2023-01-29T01:11:58.997Z,17
2023-01-29T01:12:30.906Z,17
2023-01-29T01:13:03.012Z,17
2023-01-29T01:13:35.178Z,16
2023-01-29T01:14:07.102Z,16
2023-01-29T01:14:38.993Z,16
2023-01-29T01:15:01.945Z,17
2023-01-29T01:15:26.034Z,17
2023-01-29T01:15:59.058Z,23
2023-01-29T01:16:31.187Z,33
2023-01-29T01:17:02.930Z,39
2023-01-29T01:17:33.866Z,54
2023-01-29T01:18:06.942Z,51
2023-01-29T01:18:38.827Z,54
2023-01-29T01:19:01.736Z,58
2023-01-29T01:19:24.073Z,69
2023-01-29T01:19:59.023Z,70
2023-01-29T01:20:31.018Z,76
2023-01-29T01:21:02.823Z,75
2023-01-29T01:21:33.698Z,75
2023-01-29T01:22:06.904Z,80
2023-01-29T01:22:39.002Z,82
2023-01-29T01:23:03.200Z,75
2023-01-29T01:23:27.298Z,66
2023-01-29T01:23:59.023Z,89
2023-01-29T01:24:31.009Z,91
2023-01-29T01:25:03.338Z,84
2023-01-29T01:25:33.634Z,78
2023-01-29T01:26:06.948Z,75
2023-01-29T01:26:38.859Z,76
2023-01-29T01:27:02.287Z,83
2023-01-29T01:27:24.754Z,78
2023-01-29T01:28:30.941Z,76
2023-01-29T01:29:03.050Z,73
2023-01-29T01:29:34.828Z,69
2023-01-29T01:30:07.226Z,76
2023-01-29T01:30:38.893Z,78
2023-01-29T01:31:01.788Z,78
2023-01-29T01:31:24.027Z,76
2023-01-29T01:31:59.059Z,82
2023-01-29T01:32:31.216Z,87
2023-01-29T01:33:02.945Z,80
2023-01-29T01:33:33.723Z,77
2023-01-29T01:34:07.017Z,77
2023-01-29T01:34:38.877Z,78
2023-01-29T01:35:01.750Z,78
2023-01-29T01:35:24.467Z,78
2023-01-29T01:35:58.937Z,79
2023-01-29T01:36:30.949Z,81
2023-01-29T01:37:02.934Z,82
2023-01-29T01:37:33.681Z,81
2023-01-29T01:38:06.940Z,81
2023-01-29T01:38:38.965Z,82
2023-01-29T01:39:02.020Z,81
2023-01-29T01:39:24.075Z,82
2023-01-29T01:39:58.841Z,81
2023-01-29T01:40:30.949Z,82
2023-01-29T01:41:02.879Z,89
2023-01-29T01:41:33.632Z,82
2023-01-29T01:42:06.814Z,82
2023-01-29T01:42:38.937Z,85
2023-01-29T01:43:02.194Z,75
2023-01-29T01:43:24.267Z,88
2023-01-29T01:43:59.232Z,88
2023-01-29T01:44:30.969Z,96
2023-01-29T01:45:03.357Z,89
2023-01-29T01:45:33.734Z,76
2023-01-29T01:46:07.317Z,74
2023-01-29T01:46:38.961Z,96
2023-01-29T01:47:01.690Z,89
2023-01-29T01:47:24.049Z,91
2023-01-29T01:47:59.305Z,101
2023-01-29T01:48:31.097Z,104
2023-01-29T01:49:03.180Z,100
2023-01-29T01:49:33.644Z,96
2023-01-29T01:50:07.185Z,85
2023-01-29T01:50:39.117Z,91
2023-01-29T01:51:04.666Z,94
2023-01-29T01:51:43.481Z,90
2023-01-29T01:52:08.416Z,89
2023-01-29T01:52:30.843Z,87
2023-01-29T01:53:03.032Z,81
2023-01-29T01:53:34.060Z,79
2023-01-29T01:54:07.073Z,79
2023-01-29T01:54:39.071Z,77
2023-01-29T01:55:01.779Z,76
2023-01-29T01:55:24.151Z,74
2023-01-29T01:55:59.007Z,74
2023-01-29T01:56:31.904Z,71
2023-01-29T01:57:02.970Z,69
2023-01-29T01:57:33.707Z,70
2023-01-29T01:58:06.877Z,70
2023-01-29T01:58:38.981Z,70
2023-01-29T01:59:01.993Z,71
2023-01-29T01:59:25.888Z,70
2023-01-29T01:59:59.358Z,71
2023-01-29T02:00:31.983Z,75
2023-01-29T02:01:03.057Z,76
2023-01-29T02:01:34.168Z,79
2023-01-29T02:02:07.520Z,81
2023-01-29T02:02:38.908Z,82
2023-01-29T02:03:01.793Z,82
2023-01-29T02:03:24.198Z,82
2023-01-29T02:04:33.122Z,87
2023-01-29T02:05:02.995Z,87
2023-01-29T02:05:33.684Z,105
2023-01-29T02:06:06.952Z,113
2023-01-29T02:06:38.857Z,93
2023-01-29T02:07:01.871Z,100
2023-01-29T02:07:24.297Z,110
2023-01-29T02:07:59.280Z,94
2023-01-29T02:08:32.705Z,97
2023-01-29T02:09:03.243Z,94
2023-01-29T02:09:33.840Z,88
2023-01-29T02:10:07.007Z,114
2023-01-29T02:10:38.980Z,101
2023-01-29T02:11:01.976Z,95
2023-01-29T02:11:24.294Z,98
2023-01-29T02:11:58.956Z,99
2023-01-29T02:12:33.151Z,99
2023-01-29T02:13:02.989Z,103
2023-01-29T02:13:33.766Z,97
2023-01-29T02:14:07.198Z,102
2023-01-29T02:14:39.121Z,99
2023-01-29T02:15:02.062Z,92
2023-01-29T02:15:24.045Z,95
2023-01-29T02:15:59.026Z,90
2023-01-29T02:16:31.500Z,103
2023-01-29T02:17:03.110Z,99
2023-01-29T02:17:34.227Z,107
2023-01-29T02:18:07.044Z,96
2023-01-29T02:18:38.839Z,105
2023-01-29T02:19:01.707Z,117
2023-01-29T02:19:24.070Z,103
2023-01-29T02:19:59.225Z,115
2023-01-29T02:20:30.972Z,102
2023-01-29T02:21:02.949Z,121
2023-01-29T02:21:34.702Z,97
2023-01-29T02:22:06.992Z,100
2023-01-29T02:22:38.899Z,93
2023-01-29T02:23:03.907Z,92
2023-01-29T02:23:26.084Z,99
2023-01-29T02:23:59.115Z,90
2023-01-29T02:24:31.006Z,94
2023-01-29T02:25:02.962Z,94
2023-01-29T02:25:35.477Z,96
2023-01-29T02:26:07.190Z,113
2023-01-29T02:26:39.027Z,93
2023-01-29T02:27:02.157Z,91
2023-01-29T02:27:24.354Z,82
2023-01-29T02:27:58.970Z,89
2023-01-29T02:28:31.129Z,90
2023-01-29T02:29:02.976Z,92
2023-01-29T02:29:35.793Z,88
2023-01-29T02:30:07.583Z,83
2023-01-29T02:30:39.065Z,78
2023-01-29T02:31:01.604Z,78
2023-01-29T02:31:24.230Z,79
2023-01-29T02:31:59.188Z,78
2023-01-29T02:32:30.956Z,79
2023-01-29T02:33:02.896Z,79
2023-01-29T02:33:33.788Z,76
2023-01-29T02:34:06.999Z,93
2023-01-29T02:34:39.109Z,100
2023-01-29T02:35:35.644Z,106
2023-01-29T02:35:55.687Z,101
2023-01-29T02:36:31.373Z,102
2023-01-29T02:37:03.670Z,102
2023-01-29T02:37:33.906Z,100
2023-01-29T02:38:06.876Z,103
2023-01-29T02:38:39.004Z,96
2023-01-29T02:39:04.110Z,106
2023-01-29T02:39:24.856Z,96
2023-01-29T02:39:58.960Z,100
2023-01-29T02:40:30.919Z,94
2023-01-29T02:41:02.970Z,100
2023-01-29T02:41:33.770Z,120
2023-01-29T02:42:06.941Z,106
2023-01-29T02:42:38.892Z,101
2023-01-29T02:43:01.597Z,102
2023-01-29T02:43:24.069Z,100
2023-01-29T02:43:58.908Z,102
2023-01-29T02:44:30.951Z,106
2023-01-29T02:45:03.614Z,108
2023-01-29T02:45:33.781Z,111
2023-01-29T02:46:07.034Z,103
2023-01-29T02:46:38.973Z,96
2023-01-29T02:47:01.965Z,93
2023-01-29T02:47:24.636Z,91
2023-01-29T02:47:59.121Z,87
2023-01-29T02:48:31.122Z,82
2023-01-29T02:49:03.013Z,78
2023-01-29T02:49:33.829Z,77
2023-01-29T02:50:06.921Z,77
2023-01-29T02:50:39.000Z,78
2023-01-29T02:51:01.676Z,78
2023-01-29T02:51:23.969Z,76
2023-01-29T02:51:59.044Z,75
2023-01-29T02:52:30.900Z,71
2023-01-29T02:53:03.078Z,71
2023-01-29T02:53:33.746Z,69
2023-01-29T02:54:06.888Z,66
2023-01-29T02:54:39.026Z,64
2023-01-29T02:55:01.878Z,62
2023-01-29T02:55:24.179Z,62
2023-01-29T02:55:59.048Z,60
2023-01-29T02:56:31.313Z,62
2023-01-29T02:57:02.847Z,71
2023-01-29T02:57:33.964Z,71
2023-01-29T02:58:07.246Z,75
2023-01-29T02:58:44.647Z,79
2023-01-29T02:59:01.878Z,82
2023-01-29T02:59:24.461Z,85
2023-01-29T02:59:59.140Z,86
2023-01-29T03:00:32.493Z,81
2023-01-29T03:01:02.915Z,82
2023-01-29T03:01:33.774Z,82
2023-01-29T03:02:06.936Z,81
2023-01-29T03:02:39.860Z,84
2023-01-29T03:03:09.213Z,84
2023-01-29T03:03:31.655Z,83
2023-01-29T03:03:59.515Z,94
2023-01-29T03:04:31.030Z,101
2023-01-29T03:05:02.990Z,98
2023-01-29T03:05:42.238Z,98
2023-01-29T03:06:07.264Z,93
2023-01-29T03:06:42.624Z,94
2023-01-29T03:07:02.003Z,99
2023-01-29T03:07:24.035Z,93
2023-01-29T03:07:59.192Z,94
2023-01-29T03:08:31.038Z,115
2023-01-29T03:09:03.028Z,106
2023-01-29T03:09:34.118Z,111
2023-01-29T03:10:07.237Z,113
2023-01-29T03:10:40.560Z,111
2023-01-29T03:11:01.925Z,110
2023-01-29T03:11:24.227Z,113
2023-01-29T03:11:59.033Z,109
2023-01-29T03:12:31.019Z,112
2023-01-29T03:13:02.912Z,108
2023-01-29T03:13:33.755Z,110
2023-01-29T03:14:07.016Z,106
2023-01-29T03:14:40.978Z,94
2023-01-29T03:15:02.084Z,100
2023-01-29T03:15:24.137Z,93
2023-01-29T03:15:59.143Z,97
2023-01-29T03:16:31.240Z,104
2023-01-29T03:17:02.921Z,99
2023-01-29T03:17:33.674Z,106
2023-01-29T03:18:07.223Z,104
2023-01-29T03:18:39.032Z,97
2023-01-29T03:19:02.148Z,102
2023-01-29T03:19:24.386Z,119
2023-01-29T03:19:59.025Z,108
2023-01-29T03:20:24.953Z,105
2023-01-29T03:21:03.530Z,112
2023-01-29T03:21:33.766Z,107
2023-01-29T03:22:06.995Z,110
2023-01-29T03:22:39.503Z,119
2023-01-29T03:23:02.226Z,111
2023-01-29T03:23:24.413Z,119
2023-01-29T03:23:59.254Z,98
2023-01-29T03:24:31.129Z,96
2023-01-29T03:25:04.362Z,107
2023-01-29T03:25:33.831Z,105
2023-01-29T03:26:07.004Z,91
2023-01-29T03:26:38.953Z,97
2023-01-29T03:27:01.802Z,88
2023-01-29T03:27:24.389Z,98
2023-01-29T03:27:59.228Z,91
2023-01-29T03:28:31.732Z,89
2023-01-29T03:29:03.133Z,86
2023-01-29T03:29:34.005Z,89
2023-01-29T03:30:08.016Z,118
2023-01-29T03:30:39.228Z,90
2023-01-29T03:31:02.047Z,105
2023-01-29T03:31:24.643Z,97
2023-01-29T03:31:59.714Z,94
2023-01-29T03:32:31.076Z,92
2023-01-29T03:33:03.226Z,89
2023-01-29T03:33:33.803Z,79
2023-01-29T03:34:07.042Z,82
2023-01-29T03:34:39.480Z,109
2023-01-29T03:35:03.623Z,95
2023-01-29T03:35:31.619Z,86
2023-01-29T03:35:54.213Z,74
2023-01-29T03:36:31.346Z,79
2023-01-29T03:37:03.016Z,87
2023-01-29T03:37:33.712Z,94
2023-01-29T03:38:06.931Z,80
2023-01-29T03:38:38.895Z,75
2023-01-29T03:39:02.637Z,84
2023-01-29T03:39:32.427Z,82
2023-01-29T03:39:59.146Z,86
2023-01-29T03:40:31.205Z,107
2023-01-29T03:41:03.099Z,116
2023-01-29T03:41:33.806Z,111
2023-01-29T03:42:06.952Z,105
2023-01-29T03:42:39.298Z,85
2023-01-29T03:43:01.652Z,82
2023-01-29T03:43:23.934Z,71
2023-01-29T03:43:59.069Z,56
2023-01-29T03:44:31.433Z,24
2023-01-29T03:45:03.197Z,20
2023-01-29T03:45:34.275Z,27
2023-01-29T03:46:07.032Z,25
2023-01-29T03:46:39.679Z,21
2023-01-29T03:47:02.544Z,36
2023-01-29T03:47:24.835Z,54
2023-01-29T03:47:58.967Z,91
2023-01-29T03:48:30.933Z,104
2023-01-29T03:49:03.137Z,117
2023-01-29T03:49:33.707Z,91
2023-01-29T03:50:07.240Z,102
2023-01-29T03:50:38.996Z,114
2023-01-29T03:51:01.924Z,100
2023-01-29T03:51:24.015Z,88
2023-01-29T03:51:59.023Z,82
2023-01-29T03:52:30.935Z,75
2023-01-29T03:53:03.549Z,73
2023-01-29T03:53:33.789Z,76
2023-01-29T03:54:06.977Z,68
2023-01-29T03:54:39.013Z,67
2023-01-29T03:55:01.850Z,66
2023-01-29T03:55:24.139Z,60
2023-01-29T03:55:59.193Z,61
2023-01-29T03:56:31.879Z,79
2023-01-29T03:57:03.030Z,71
2023-01-29T03:57:34.210Z,68
2023-01-29T03:58:07.340Z,83
2023-01-29T03:58:38.941Z,83
2023-01-29T03:59:02.408Z,85
2023-01-29T03:59:24.831Z,70
2023-01-29T03:59:59.028Z,83
2023-01-29T04:00:47.700Z,116
2023-01-29T04:01:10.189Z,94
2023-01-29T04:01:32.611Z,91
2023-01-29T04:02:07.090Z,84
2023-01-29T04:02:39.127Z,82
2023-01-29T04:03:01.662Z,81
2023-01-29T04:03:24.266Z,89
2023-01-29T04:03:59.390Z,102
2023-01-29T04:04:31.133Z,81
2023-01-29T04:05:03.573Z,71
2023-01-29T04:05:34.223Z,67
2023-01-29T04:06:07.389Z,72
2023-01-29T04:06:39.322Z,75
2023-01-29T04:07:01.787Z,70
2023-01-29T04:07:24.236Z,72
2023-01-29T04:07:59.221Z,82
2023-01-29T04:08:31.257Z,109
2023-01-29T04:09:04.031Z,103
2023-01-29T04:09:33.843Z,105
2023-01-29T04:10:07.026Z,122
2023-01-29T04:10:39.125Z,117
2023-01-29T04:11:01.719Z,105
2023-01-29T04:11:24.216Z,90
2023-01-29T04:11:59.107Z,85
2023-01-29T04:12:31.515Z,90
2023-01-29T04:13:03.164Z,81
2023-01-29T04:13:33.941Z,69
2023-01-29T04:14:07.007Z,63
2023-01-29T04:14:39.368Z,57
2023-01-29T04:15:02.249Z,57
2023-01-29T04:15:24.375Z,60
2023-01-29T04:15:59.226Z,63
2023-01-29T04:16:31.324Z,72
2023-01-29T04:17:03.667Z,86
2023-01-29T04:17:33.758Z,85
2023-01-29T04:18:07.130Z,77
2023-01-29T04:18:39.083Z,86
2023-01-29T04:19:01.741Z,93
2023-01-29T04:19:24.206Z,97
2023-01-29T04:19:59.118Z,94
2023-01-29T04:20:32.035Z,108
2023-01-29T04:21:03.158Z,82
2023-01-29T04:21:33.905Z,114
2023-01-29T04:22:07.435Z,106
2023-01-29T04:22:39.394Z,101
2023-01-29T04:23:02.253Z,122
2023-01-29T04:23:24.334Z,112
2023-01-29T04:23:59.234Z,129
2023-01-29T04:24:31.028Z,126
2023-01-29T04:25:03.385Z,128
2023-01-29T04:25:33.775Z,126
2023-01-29T04:26:07.681Z,135
2023-01-29T04:26:39.579Z,116
2023-01-29T04:27:02.291Z,120
2023-01-29T04:27:24.718Z,111
2023-01-29T04:27:59.324Z,118
2023-01-29T04:28:31.993Z,121
2023-01-29T04:29:03.735Z,111
2023-01-29T04:29:33.862Z,124
2023-01-29T04:30:07.858Z,125
2023-01-29T04:30:39.257Z,97
2023-01-29T04:31:01.982Z,110
2023-01-29T04:31:24.303Z,126
2023-01-29T04:31:59.815Z,122
2023-01-29T04:32:31.604Z,119
2023-01-29T04:33:03.082Z,84
2023-01-29T04:33:33.763Z,100
2023-01-29T04:34:07.949Z,129
2023-01-29T04:34:40.925Z,94
2023-01-29T04:35:02.044Z,86
2023-01-29T04:35:29.149Z,89
2023-01-29T04:35:59.339Z,92
2023-01-29T04:36:31.691Z,84
2023-01-29T04:37:04.742Z,88
2023-01-29T04:37:35.049Z,83
2023-01-29T04:38:07.612Z,100
2023-01-29T04:38:39.988Z,100
2023-01-29T04:39:02.911Z,128
2023-01-29T04:39:26.711Z,122
2023-01-29T04:40:00.557Z,92
2023-01-29T04:40:32.890Z,105
2023-01-29T04:41:04.896Z,106
2023-01-29T04:41:38.940Z,87
2023-01-29T04:42:07.375Z,90
2023-01-29T04:42:39.125Z,85
2023-01-29T04:43:01.857Z,92
2023-01-29T04:43:24.525Z,130
2023-01-29T04:43:59.058Z,85
2023-01-29T04:44:31.083Z,80
2023-01-29T04:45:03.264Z,84
2023-01-29T04:45:34.431Z,74
2023-01-29T04:46:07.210Z,83
2023-01-29T04:46:39.382Z,80
2023-01-29T04:47:02.108Z,68
2023-01-29T04:47:24.495Z,71
2023-01-29T04:48:00.862Z,73
2023-01-29T04:48:31.056Z,67
2023-01-29T04:49:03.518Z,84
2023-01-29T04:49:33.794Z,79
2023-01-29T04:50:08.847Z,86
2023-01-29T04:50:39.079Z,84
2023-01-29T04:51:01.593Z,122
2023-01-29T04:51:24.667Z,104
2023-01-29T04:51:59.021Z,90
2023-01-29T04:52:31.129Z,114
2023-01-29T04:53:03.264Z,100
2023-01-29T04:53:34.277Z,100
2023-01-29T04:54:07.033Z,99
2023-01-29T04:54:39.611Z,105
2023-01-29T04:55:01.819Z,108
2023-01-29T04:55:24.436Z,123
2023-01-29T04:56:06.263Z,118
2023-01-29T04:56:28.334Z,119
2023-01-29T04:57:03.114Z,125
2023-01-29T04:57:33.683Z,123
2023-01-29T04:58:07.106Z,126
2023-01-29T04:58:38.969Z,98
2023-01-29T04:59:03.287Z,92
2023-01-29T04:59:25.702Z,122
2023-01-29T04:59:59.103Z,110
2023-01-29T05:00:31.286Z,129
2023-01-29T05:01:03.237Z,126
2023-01-29T05:01:33.911Z,142
2023-01-29T05:02:07.081Z,153
2023-01-29T05:02:39.215Z,118
2023-01-29T05:03:03.802Z,136
2023-01-29T05:03:24.550Z,113
2023-01-29T05:03:59.336Z,119
2023-01-29T05:04:31.435Z,148
2023-01-29T05:05:03.239Z,116
2023-01-29T05:05:33.708Z,123
2023-01-29T05:06:08.622Z,122
2023-01-29T05:06:39.224Z,138
2023-01-29T05:07:02.266Z,120
2023-01-29T05:07:25.050Z,125
2023-01-29T05:07:59.422Z,122
2023-01-29T05:08:32.042Z,132
2023-01-29T05:09:04.564Z,124
2023-01-29T05:09:33.910Z,122
2023-01-29T05:10:07.170Z,146
2023-01-29T05:10:38.984Z,131
2023-01-29T05:11:01.907Z,125
2023-01-29T05:11:25.064Z,116
2023-01-29T05:11:59.582Z,112
2023-01-29T05:12:31.311Z,117
2023-01-29T05:13:03.103Z,89
2023-01-29T05:13:33.674Z,117
2023-01-29T05:14:06.972Z,116
2023-01-29T05:14:39.122Z,117
2023-01-29T05:15:01.935Z,126
2023-01-29T05:15:24.376Z,122
2023-01-29T05:15:59.052Z,136
2023-01-29T05:16:31.171Z,126
2023-01-29T05:17:03.619Z,111
2023-01-29T05:17:33.808Z,171
2023-01-29T05:18:07.189Z,127
2023-01-29T05:18:39.807Z,138
2023-01-29T05:19:02.040Z,148
2023-01-29T05:19:24.349Z,183
2023-01-29T05:19:59.060Z,107
2023-01-29T05:20:31.146Z,116
2023-01-29T05:21:02.956Z,187
2023-01-29T05:21:33.740Z,168
2023-01-29T05:22:06.933Z,192
2023-01-29T05:22:40.006Z,148
2023-01-29T05:23:01.740Z,156
2023-01-29T05:23:24.307Z,167
2023-01-29T05:23:59.100Z,157
2023-01-29T05:24:31.340Z,184
2023-01-29T05:25:03.154Z,150
2023-01-29T05:25:33.871Z,144
2023-01-29T05:26:07.184Z,121
2023-01-29T05:26:40.521Z,167
2023-01-29T05:27:01.897Z,154
2023-01-29T05:27:24.370Z,168
2023-01-29T05:28:04.629Z,154
2023-01-29T05:28:30.966Z,144
2023-01-29T05:29:03.235Z,175
2023-01-29T05:29:33.755Z,161
2023-01-29T05:30:07.298Z,170
2023-01-29T05:30:40.888Z,213
2023-01-29T05:31:01.999Z,170
2023-01-29T05:31:24.213Z,150
2023-01-29T05:31:59.163Z,173
2023-01-29T05:32:31.471Z,141
2023-01-29T05:33:03.085Z,151
2023-01-29T05:33:33.727Z,187
2023-01-29T05:34:07.102Z,180
2023-01-29T05:34:41.131Z,86
2023-01-29T05:35:02.540Z,326
2023-01-29T05:35:25.257Z,210
2023-01-29T05:35:59.726Z,249
2023-01-29T05:36:27.870Z,318
2023-01-29T05:37:04.041Z,248
2023-01-29T05:37:35.964Z,252
2023-01-29T05:38:08.876Z,257
2023-01-29T05:38:41.607Z,248
2023-01-29T05:39:03.876Z,218
2023-01-29T05:39:24.717Z,214
2023-01-29T05:40:00.194Z,263
2023-01-29T05:40:31.149Z,353
2023-01-29T05:41:07.710Z,354
2023-01-29T05:41:36.874Z,353
2023-01-29T05:42:08.222Z,347
2023-01-29T05:42:40.582Z,354
2023-01-29T05:43:01.688Z,359
2023-01-29T05:43:24.581Z,7
2023-01-29T05:44:00.800Z,11
2023-01-29T05:44:31.528Z,28
2023-01-29T05:45:03.186Z,26
2023-01-29T05:45:36.033Z,28
2023-01-29T05:46:07.457Z,7
2023-01-29T05:46:40.146Z,12
2023-01-29T05:47:02.901Z,338
2023-01-29T05:47:25.174Z,358
2023-01-29T05:47:59.195Z,251
2023-01-29T05:48:31.443Z,259
2023-01-29T05:49:03.200Z,229
2023-01-29T05:49:37.291Z,246
2023-01-29T05:50:08.090Z,235
2023-01-29T05:50:39.093Z,218
2023-01-29T05:51:01.855Z,224
2023-01-29T05:51:24.400Z,260
2023-01-29T05:51:58.992Z,235
2023-01-29T05:52:31.170Z,251
2023-01-29T05:53:03.086Z,251
2023-01-29T05:53:33.892Z,246
2023-01-29T05:54:07.172Z,240
2023-01-29T05:54:40.388Z,243
2023-01-29T05:55:02.879Z,239
2023-01-29T05:55:25.281Z,233
2023-01-29T05:55:59.346Z,237
2023-01-29T05:56:31.156Z,277
2023-01-29T05:57:03.194Z,242
2023-01-29T05:57:33.862Z,241
2023-01-29T05:58:07.065Z,230
2023-01-29T05:58:39.085Z,262
2023-01-29T05:59:01.781Z,254
2023-01-29T05:59:24.460Z,228
2023-01-29T05:59:59.563Z,247
2023-01-29T06:00:33.269Z,260
2023-01-29T06:01:03.810Z,256
2023-01-29T06:01:34.182Z,229
2023-01-29T06:02:07.116Z,235
2023-01-29T06:02:39.187Z,254
2023-01-29T06:03:03.440Z,268
2023-01-29T06:03:24.248Z,267
2023-01-29T06:03:59.899Z,254
2023-01-29T06:04:30.999Z,268
2023-01-29T06:05:03.193Z,279
2023-01-29T06:05:34.259Z,300
2023-01-29T06:06:08.232Z,250
2023-01-29T06:06:39.402Z,296
2023-01-29T06:07:02.107Z,307
2023-01-29T06:07:24.762Z,255
2023-01-29T06:07:59.109Z,257
2023-01-29T06:08:32.258Z,271
2023-01-29T06:09:03.407Z,282
2023-01-29T06:09:35.905Z,294
2023-01-29T06:10:07.245Z,323
2023-01-29T06:10:39.224Z,334
2023-01-29T06:11:01.805Z,337
2023-01-29T06:11:24.215Z,334
2023-01-29T06:11:59.555Z,338
2023-01-29T06:12:31.566Z,342
2023-01-29T06:13:03.754Z,131
2023-01-29T06:13:33.798Z,123
2023-01-29T06:14:07.712Z,110
2023-01-29T06:14:40.975Z,102
2023-01-29T06:15:03.824Z,98
2023-01-29T06:15:26.367Z,95
2023-01-29T06:15:59.146Z,189
2023-01-29T06:16:31.889Z,160
2023-01-29T06:17:04.581Z,141
2023-01-29T06:17:34.551Z,118
2023-01-29T06:18:07.304Z,110
2023-01-29T06:18:39.265Z,121
2023-01-29T06:19:02.116Z,128
2023-01-29T06:19:24.469Z,128
2023-01-29T06:19:59.332Z,125
2023-01-29T06:20:31.425Z,117
2023-01-29T06:21:04.222Z,116
2023-01-29T06:21:35.715Z,134
2023-01-29T06:22:07.007Z,128
2023-01-29T06:22:40.901Z,127
2023-01-29T06:23:02.183Z,133
2023-01-29T06:23:25.565Z,132
2023-01-29T06:23:59.518Z,142
2023-01-29T06:24:32.496Z,136
2023-01-29T06:25:03.942Z,128
2023-01-29T06:25:34.073Z,124
2023-01-29T06:26:07.740Z,143
2023-01-29T06:26:39.700Z,160
2023-01-29T06:27:02.627Z,164
2023-01-29T06:27:24.924Z,161
2023-01-29T06:28:05.514Z,138
2023-01-29T06:28:31.123Z,133
2023-01-29T06:29:03.426Z,137
2023-01-29T06:29:34.136Z,131
2023-01-29T06:30:07.641Z,138
2023-01-29T06:30:41.363Z,172
2023-01-29T06:31:22.026Z,171
2023-01-29T06:31:43.299Z,140
2023-01-29T06:32:06.159Z,158
2023-01-29T06:32:28.514Z,138
2023-01-29T06:33:03.794Z,153
2023-01-29T06:33:33.845Z,159
2023-01-29T06:34:09.449Z,137
2023-01-29T06:34:39.326Z,119
2023-01-29T06:35:02.059Z,118
2023-01-29T06:35:31.501Z,139
2023-01-29T06:35:53.781Z,150
2023-01-29T06:36:31.505Z,140
2023-01-29T06:37:03.310Z,122
2023-01-29T06:37:33.858Z,108
2023-01-29T06:38:07.109Z,96
2023-01-29T06:38:34.758Z,126
2023-01-29T06:39:05.535Z,128
2023-01-29T06:39:43.148Z,98
2023-01-29T06:40:05.823Z,88
2023-01-29T06:40:28.426Z,177
2023-01-29T06:41:03.111Z,149
2023-01-29T06:41:35.232Z,116
2023-01-29T06:42:07.076Z,90
2023-01-29T06:42:39.255Z,93
2023-01-29T06:43:03.215Z,98
2023-01-29T06:43:25.204Z,112
2023-01-29T06:43:59.164Z,127
2023-01-29T06:44:31.475Z,125
2023-01-29T06:45:03.157Z,122
2023-01-29T06:45:33.886Z,128
2023-01-29T06:46:07.180Z,141
2023-01-29T06:46:39.081Z,132
2023-01-29T06:47:02.241Z,151
2023-01-29T06:47:24.556Z,155
2023-01-29T06:48:01.275Z,125
2023-01-29T06:48:31.144Z,149
2023-01-29T06:49:03.296Z,126
2023-01-29T06:49:33.721Z,140
2023-01-29T06:50:07.099Z,136
2023-01-29T06:50:39.053Z,160
2023-01-29T06:51:01.905Z,150
2023-01-29T06:51:24.222Z,139
2023-01-29T06:51:59.250Z,139
2023-01-29T06:52:31.139Z,121
2023-01-29T06:53:03.117Z,130
2023-01-29T06:53:33.719Z,125
2023-01-29T06:54:07.003Z,138
2023-01-29T06:54:39.151Z,133
2023-01-29T06:55:01.968Z,134
2023-01-29T06:55:24.216Z,157
2023-01-29T06:55:58.991Z,174
2023-01-29T06:56:31.268Z,143
2023-01-29T06:57:03.088Z,156
2023-01-29T06:57:33.798Z,189
2023-01-29T06:58:07.104Z,163
2023-01-29T06:58:39.562Z,137
2023-01-29T06:59:02.459Z,129
2023-01-29T06:59:24.767Z,113
2023-01-29T06:59:58.973Z,95
2023-01-29T07:00:31.600Z,118
2023-01-29T07:01:03.396Z,120
2023-01-29T07:01:36.466Z,129